Time;durP1;ratioP1;P1;durP2;ratioP2;P2;SDS_P1;SDS_P2;PMS_P1;PMS_P2;Temp;Humidity;BMP_temperature;BMP_pressure;BME280_temperature;BME280_humidity;BME280_pressure;Samples;Min_cycle;Max_cycle;Signal;HPM_P1;HPM_P2
2023/05/17 00:01:42;;;;;;;3.30;3.00;;;;;;;17.78;100.00;98808.64;109318;1253;268040;-68
2023/05/17 00:04:09;;;;;;;4.90;3.10;;;;;;;17.78;100.00;98805.61;109519;1254;61833;-69
2023/05/17 00:06:36;;;;;;;4.70;2.80;;;;;;;17.77;100.00;98805.23;109560;1252;61050;-68
2023/05/17 00:09:02;;;;;;;3.20;2.90;;;;;;;17.76;100.00;98801.42;109543;1254;75525;-69
2023/05/17 00:11:29;;;;;;;4.10;3.00;;;;;;;17.76;100.00;98798.61;109533;1253;68682;-69
2023/05/17 00:13:56;;;;;;;6.90;3.40;;;;;;;17.74;100.00;98796.21;109512;1253;74719;-69
2023/05/17 00:16:23;;;;;;;4.20;3.30;;;;;;;17.72;100.00;98796.49;109493;1253;62749;-69
2023/05/17 00:18:50;;;;;;;5.60;3.00;;;;;;;17.71;100.00;98795.33;109501;1253;58892;-69
2023/05/17 00:21:17;;;;;;;3.50;2.80;;;;;;;17.68;100.00;98792.63;109509;1254;75840;-69
2023/05/17 00:23:44;;;;;;;5.50;2.90;;;;;;;17.66;100.00;98794.29;109579;1252;69099;-69
2023/05/17 00:26:12;;;;;;;3.60;3.00;;;;;;;17.64;100.00;98796.73;109508;1254;73582;-69
2023/05/17 00:28:39;;;;;;;4.40;2.90;;;;;;;17.63;100.00;98795.36;109500;1254;62424;-68
2023/05/17 00:31:06;;;;;;;4.90;3.20;;;;;;;17.63;100.00;98794.21;109551;1252;61622;-67
2023/05/17 00:33:32;;;;;;;4.00;2.80;;;;;;;17.65;100.00;98795.73;109583;1251;75646;-68
2023/05/17 00:35:59;;;;;;;5.80;2.80;;;;;;;17.64;100.00;98792.95;109603;1251;69439;-68
2023/05/17 00:38:26;;;;;;;5.50;3.80;;;;;;;17.62;100.00;98801.25;109458;1254;74743;-68
2023/05/17 00:40:53;;;;;;;3.00;2.60;;;;;;;17.58;100.00;98800.11;109516;1253;62457;-68
2023/05/17 00:43:20;;;;;;;3.80;3.10;;;;;;;17.53;100.00;98795.88;109556;1252;60385;-69
2023/05/17 00:45:49;;;;;;;4.10;3.40;;;;;;;17.49;100.00;98797.05;109566;1253;74928;-68
2023/05/17 00:48:15;;;;;;;3.90;3.10;;;;;;;17.46;100.00;98797.69;109540;1252;69885;-68
2023/05/17 00:50:42;;;;;;;3.60;3.20;;;;;;;17.44;100.00;98798.11;109434;1254;74893;-69
2023/05/17 00:53:10;;;;;;;4.70;2.80;;;;;;;17.43;100.00;98797.23;109384;1254;61493;-68
2023/05/17 00:55:36;;;;;;;7.00;3.90;;;;;;;17.42;100.00;98798.43;109548;1253;61326;-69
2023/05/17 00:58:03;;;;;;;4.00;3.20;;;;;;;17.40;100.00;98795.66;109510;1254;75174;-68
2023/05/17 01:00:30;;;;;;;5.00;3.50;;;;;;;17.38;100.00;98794.95;109504;1254;69426;-69
2023/05/17 01:02:57;;;;;;;3.60;3.30;;;;;;;17.37;100.00;98795.95;109423;1253;73331;-68
2023/05/17 01:05:27;;;;;;;4.60;3.40;;;;;;;17.37;100.00;98801.33;109466;1251;62139;-69
2023/05/17 01:07:54;;;;;;;4.90;3.40;;;;;;;17.39;100.00;98806.48;109530;1253;60747;-69
2023/05/17 01:10:23;;;;;;;6.10;3.80;;;;;;;17.41;100.00;98802.55;109521;1251;74734;-67
2023/05/17 01:13:03;;;;;;;7.60;3.80;;;;;;;17.42;100.00;98805.05;109502;1256;70382;-69
2023/05/17 01:15:31;;;;;;;8.80;3.60;;;;;;;17.43;100.00;98805.04;109378;1253;72847;-68
2023/05/17 01:18:14;;;;;;;6.20;3.50;;;;;;;17.43;100.00;98804.34;109374;1252;61833;-68
2023/05/17 01:20:42;;;;;;;4.20;3.80;;;;;;;17.42;100.00;98802.36;109406;1253;61724;-68
2023/05/17 01:23:25;;;;;;;4.60;3.40;;;;;;;17.41;100.00;98804.83;109353;1253;75061;-69
2023/05/17 01:26:05;;;;;;;5.40;3.30;;;;;;;17.40;100.00;98804.71;109504;1251;69316;-68
2023/05/17 01:28:31;;;;;;;5.80;3.20;;;;;;;17.39;100.00;98804.77;109364;1254;73593;-68
2023/05/17 01:31:00;;;;;;;6.70;3.30;;;;;;;17.40;100.00;98802.89;109361;1253;62367;-68
2023/05/17 01:33:28;;;;;;;4.20;3.20;;;;;;;17.40;100.00;98802.90;109530;1254;62423;-69
2023/05/17 01:35:55;;;;;;;5.50;3.40;;;;;;;17.39;100.00;98799.27;109385;1257;74840;-70
2023/05/17 01:38:22;;;;;;;4.30;3.60;;;;;;;17.38;100.00;98796.98;109531;1254;66531;-70
2023/05/17 01:41:18;;;;;;;6.60;3.60;;;;;;;17.35;100.00;98796.98;109441;1254;72018;-69
2023/05/17 01:44:00;;;;;;;5.20;3.20;;;;;;;17.34;100.00;98799.69;109426;1253;62831;-69
2023/05/17 01:46:29;;;;;;;6.90;3.30;;;;;;;17.32;100.00;98799.38;109465;1253;59427;-69
2023/05/17 01:49:14;;;;;;;6.70;3.00;;;;;;;17.31;100.00;98794.39;109402;1254;77001;-69
2023/05/17 01:51:46;;;;;;;7.60;3.00;;;;;;;17.29;100.00;98790.27;109487;1253;70162;-69
2023/05/17 01:54:14;;;;;;;4.80;3.00;;;;;;;17.28;100.00;98784.02;109347;1252;72786;-69
2023/05/17 01:56:42;;;;;;;6.60;3.40;;;;;;;17.27;100.00;98786.55;109365;1252;59361;-70
2023/05/17 01:59:10;;;;;;;6.50;3.30;;;;;;;17.26;100.00;98780.08;109547;1252;61667;-70
2023/05/17 02:01:37;;;;;;;6.40;3.70;;;;;;;17.24;100.00;98775.80;109514;1252;76139;-70
2023/05/17 02:04:04;;;;;;;7.70;3.00;;;;;;;17.23;100.00;98769.90;109389;1253;68476;-70
2023/05/17 02:06:31;;;;;;;6.80;3.60;;;;;;;17.22;100.00;98766.70;109514;1252;74604;-70
2023/05/17 02:09:01;;;;;;;8.40;2.90;;;;;;;17.21;100.00;98767.15;109453;1253;62504;-70
2023/05/17 02:11:28;;;;;;;4.60;2.70;;;;;;;17.22;100.00;98761.48;109534;1253;62296;-70
2023/05/17 02:13:55;;;;;;;3.70;2.60;;;;;;;17.23;100.00;98759.46;109420;1253;75979;-70
2023/05/17 02:16:21;;;;;;;5.20;2.90;;;;;;;17.24;100.00;98759.44;109432;1251;68294;-71
2023/05/17 02:18:48;;;;;;;5.00;3.00;;;;;;;17.23;100.00;98757.42;109394;1253;72538;-70
2023/05/17 02:21:17;;;;;;;4.20;3.20;;;;;;;17.23;100.00;98753.27;109510;1252;62256;-70
2023/05/17 02:23:44;;;;;;;3.90;3.20;;;;;;;17.23;100.00;98751.35;109557;1252;61634;-69
2023/05/17 02:26:11;;;;;;;3.90;3.00;;;;;;;17.21;100.00;98751.68;109589;1254;76746;-68
2023/05/17 02:28:38;;;;;;;7.80;3.10;;;;;;;17.20;100.00;98749.44;109618;1253;67954;-70
2023/05/17 02:31:06;;;;;;;4.80;3.00;;;;;;;17.18;100.00;98751.92;109511;1252;74671;-69
2023/05/17 02:33:34;;;;;;;5.10;2.90;;;;;;;17.16;100.00;98754.88;109500;1254;63229;-69
2023/05/17 02:36:01;;;;;;;3.90;2.80;;;;;;;17.15;100.00;98754.25;109579;1253;60669;-70
2023/05/17 02:38:27;;;;;;;6.70;3.30;;;;;;;17.15;100.00;98753.40;109586;1252;76881;-70
2023/05/17 02:40:54;;;;;;;6.20;3.20;;;;;;;17.12;100.00;98755.54;109600;1252;69907;-70
2023/05/17 02:43:23;;;;;;;5.20;3.40;;;;;;;17.09;100.00;98749.52;109564;1252;73669;-71
2023/05/17 02:45:49;;;;;;;5.50;3.30;;;;;;;17.05;100.00;98749.59;109562;1253;62225;-70
2023/05/17 02:48:16;;;;;;;3.90;3.30;;;;;;;17.01;100.00;98743.11;109413;1253;60921;-69
2023/05/17 02:50:43;;;;;;;5.20;3.10;;;;;;;16.99;100.00;98738.21;109381;1253;76881;-69
2023/05/17 02:53:10;;;;;;;5.30;3.20;;;;;;;16.97;100.00;98740.67;109310;1253;69828;-69
2023/05/17 02:55:37;;;;;;;3.70;2.90;;;;;;;16.95;100.00;98740.25;109387;1252;71067;-68
2023/05/17 02:58:03;;;;;;;6.10;3.00;;;;;;;16.95;100.00;98741.75;109582;1252;62657;-68
2023/05/17 03:00:31;;;;;;;4.80;3.10;;;;;;;16.94;100.00;98740.52;109378;1252;62685;-68
2023/05/17 03:02:58;;;;;;;4.60;2.80;;;;;;;16.93;100.00;98736.04;109473;1252;73825;-70
2023/05/17 03:05:25;;;;;;;4.30;2.90;;;;;;;16.94;100.00;98746.17;109461;1252;69584;-69
2023/05/17 03:07:52;;;;;;;3.30;2.80;;;;;;;16.94;100.00;98757.94;109487;1253;73362;-70
2023/05/17 03:10:19;;;;;;;4.40;3.20;;;;;;;16.93;100.00;98763.60;109426;1252;61404;-70
2023/05/17 03:12:46;;;;;;;7.20;3.00;;;;;;;16.91;100.00;98762.44;109512;1252;59408;-70
2023/05/17 03:15:15;;;;;;;3.70;3.20;;;;;;;16.89;100.00;98755.67;109475;1252;76736;-69
2023/05/17 03:17:42;;;;;;;5.90;2.80;;;;;;;16.90;100.00;98759.39;109514;1252;68873;-68
2023/05/17 03:20:10;;;;;;;7.10;3.20;;;;;;;16.89;100.00;98757.17;109430;1253;71122;-70
2023/05/17 03:22:37;;;;;;;4.80;3.10;;;;;;;16.88;100.00;98756.98;109417;1254;61938;-70
2023/05/17 03:25:05;;;;;;;4.10;3.20;;;;;;;16.85;100.00;98766.48;109533;1252;61343;-69
2023/05/17 03:27:32;;;;;;;8.10;3.70;;;;;;;16.86;100.00;98762.27;109471;1254;75072;-70
2023/05/17 03:30:00;;;;;;;5.10;3.20;;;;;;;16.87;100.00;98765.84;109421;1252;70224;-69
2023/05/17 03:32:28;;;;;;;6.00;3.20;;;;;;;16.89;100.00;98767.70;109445;1253;73171;-70
2023/05/17 03:34:54;;;;;;;4.10;3.50;;;;;;;16.90;100.00;98772.28;109446;1254;61463;-71
2023/05/17 03:37:21;;;;;;;7.50;3.10;;;;;;;16.90;100.00;98771.38;109382;1253;61659;-69
2023/05/17 03:39:48;;;;;;;4.00;3.30;;;;;;;16.88;100.00;98776.58;109517;1251;75629;-69
2023/05/17 03:42:15;;;;;;;4.60;2.70;;;;;;;16.86;100.00;98778.91;109568;1253;69388;-70
2023/05/17 03:44:42;;;;;;;5.10;2.90;;;;;;;16.87;100.00;98786.83;109344;1253;71522;-70
2023/05/17 03:47:10;;;;;;;5.00;2.80;;;;;;;16.87;100.00;98787.20;109331;1253;62912;-71
2023/05/17 03:49:37;;;;;;;5.90;3.40;;;;;;;16.87;100.00;98799.14;109411;1253;60977;-71
2023/05/17 03:52:04;;;;;;;4.40;3.60;;;;;;;16.89;100.00;98799.23;109532;1251;75928;-71
2023/05/17 03:54:31;;;;;;;5.40;2.80;;;;;;;16.91;100.00;98797.73;109477;1251;69073;-70
2023/05/17 03:56:59;;;;;;;5.20;3.20;;;;;;;16.91;100.00;98798.27;109277;1252;74145;-71
2023/05/17 03:59:25;;;;;;;3.90;3.00;;;;;;;16.89;100.00;98801.97;109430;1254;61671;-70
2023/05/17 04:01:52;;;;;;;3.50;2.90;;;;;;;16.87;100.00;98803.80;109433;1253;62299;-71
2023/05/17 04:04:19;;;;;;;4.40;3.10;;;;;;;16.86;100.00;98808.84;109412;1253;76010;-71
2023/05/17 04:06:46;;;;;;;4.80;2.90;;;;;;;16.83;100.00;98806.59;109516;1252;68988;-69
2023/05/17 04:09:14;;;;;;;4.50;2.90;;;;;;;16.81;100.00;98811.79;109510;1253;74407;-69
2023/05/17 04:11:41;;;;;;;3.70;2.70;;;;;;;16.77;100.00;98816.27;109491;1252;63754;-70
2023/05/17 04:14:09;;;;;;;4.40;3.10;;;;;;;16.76;100.00;98819.09;109409;1253;61067;-68
2023/05/17 04:16:36;;;;;;;4.80;2.50;;;;;;;16.77;100.00;98817.16;109459;1253;74806;-66
2023/05/17 04:19:03;;;;;;;4.10;2.80;;;;;;;16.78;100.00;98824.30;109503;1252;68672;-66
2023/05/17 04:21:30;;;;;;;9.50;3.20;;;;;;;16.80;100.00;98822.50;109480;1252;74252;-67
2023/05/17 04:23:57;;;;;;;5.00;2.70;;;;;;;16.81;100.00;98824.06;109430;1251;59868;-68
2023/05/17 04:26:25;;;;;;;3.30;2.90;;;;;;;16.83;100.00;98825.65;109308;1253;59839;-68
2023/05/17 04:28:52;;;;;;;5.70;2.70;;;;;;;16.84;100.00;98824.30;109367;1252;77062;-68
2023/05/17 04:31:21;;;;;;;5.70;2.60;;;;;;;16.86;100.00;98823.30;109469;1252;68038;-70
2023/05/17 04:33:48;;;;;;;3.70;2.50;;;;;;;16.88;100.00;98822.73;109424;1252;73174;-69
2023/05/17 04:36:16;;;;;;;5.20;2.60;;;;;;;16.89;100.00;98831.58;109480;1253;62214;-69
2023/05/17 04:38:43;;;;;;;4.90;3.00;;;;;;;16.89;100.00;98832.51;109422;1253;59205;-69
2023/05/17 04:41:12;;;;;;;4.20;2.90;;;;;;;16.90;100.00;98831.91;109431;1253;75780;-70
2023/05/17 04:43:40;;;;;;;4.90;2.50;;;;;;;16.89;100.00;98830.58;109422;1253;70025;-67
2023/05/17 04:46:11;;;;;;;4.60;2.10;;;;;;;16.88;100.00;98836.99;109384;1254;71465;-68
2023/05/17 04:48:38;;;;;;;3.50;2.30;;;;;;;16.88;100.00;98832.94;109394;1253;61686;-68
2023/05/17 04:51:06;;;;;;;6.00;2.70;;;;;;;16.87;100.00;98833.52;109480;1251;62446;-67
2023/05/17 04:53:33;;;;;;;3.90;2.20;;;;;;;16.87;100.00;98838.89;109476;1253;77656;-70
2023/05/17 04:56:05;;;;;;;6.50;2.40;;;;;;;16.87;100.00;98833.98;109488;1251;70903;-71
2023/05/17 04:58:32;;;;;;;5.60;2.50;;;;;;;16.86;100.00;98837.10;109529;1252;73047;-68
2023/05/17 05:00:59;;;;;;;5.10;2.20;;;;;;;16.86;100.00;98836.19;109422;1252;59338;-68
2023/05/17 05:03:26;;;;;;;4.40;2.80;;;;;;;16.86;100.00;98838.80;109427;1253;60805;-68
2023/05/17 05:05:53;;;;;;;6.40;2.50;;;;;;;16.86;100.00;98838.21;109399;1253;73061;-69
2023/05/17 05:08:20;;;;;;;2.70;1.90;;;;;;;16.87;100.00;98835.51;109452;1252;69441;-72
2023/05/17 05:10:47;;;;;;;5.00;2.40;;;;;;;16.88;100.00;98836.98;109549;1252;73217;-70
2023/05/17 05:13:14;;;;;;;6.70;2.40;;;;;;;16.89;100.00;98832.02;109440;1252;59420;-72
2023/05/17 05:15:41;;;;;;;7.00;2.30;;;;;;;16.90;100.00;98830.64;109424;1252;60645;-69
2023/05/17 05:18:08;;;;;;;6.00;3.50;;;;;;;16.91;100.00;98827.66;109459;1252;76024;-72
2023/05/17 05:20:35;;;;;;;7.20;2.20;;;;;;;16.91;100.00;98827.77;109431;1253;67137;-71
2023/05/17 05:23:04;;;;;;;6.40;2.50;;;;;;;16.92;100.00;98824.04;109417;1252;73718;-67
2023/05/17 05:25:32;;;;;;;5.60;2.90;;;;;;;16.93;100.00;98829.15;109310;1253;61741;-72
2023/05/17 05:27:59;;;;;;;2.50;2.20;;;;;;;16.93;100.00;98835.19;109362;1253;61481;-69
2023/05/17 05:30:26;;;;;;;6.20;2.50;;;;;;;16.94;100.00;98833.49;109527;1252;73852;-73
2023/05/17 05:32:53;;;;;;;7.40;2.40;;;;;;;16.95;100.00;98831.90;109357;1252;69894;-70
2023/05/17 05:35:25;;;;;;;4.10;2.30;;;;;;;16.94;100.00;98832.75;109340;1253;72464;-69
2023/05/17 05:37:53;;;;;;;5.90;2.60;;;;;;;16.92;100.00;98837.11;109491;1252;61756;-70
2023/05/17 05:40:20;;;;;;;2.50;2.20;;;;;;;16.92;100.00;98831.39;109503;1252;62123;-69
2023/05/17 05:42:47;;;;;;;3.80;2.20;;;;;;;16.92;100.00;98831.08;109365;1252;74520;-71
2023/05/17 05:45:14;;;;;;;6.20;2.20;;;;;;;16.91;100.00;98829.55;109414;1251;66287;-69
2023/05/17 05:47:42;;;;;;;4.80;2.00;;;;;;;16.93;100.00;98837.43;109335;1253;74640;-66
2023/05/17 05:50:10;;;;;;;5.80;2.40;;;;;;;16.93;100.00;98837.72;109394;1252;61466;-70
2023/05/17 05:52:37;;;;;;;3.50;3.10;;;;;;;16.95;100.00;98831.90;109434;1252;61335;-72
2023/05/17 05:55:04;;;;;;;4.70;2.40;;;;;;;16.97;100.00;98837.56;109390;1251;76621;-70
2023/05/17 05:57:31;;;;;;;6.40;2.40;;;;;;;17.00;100.00;98837.00;109389;1253;66862;-71
2023/05/17 05:59:58;;;;;;;4.10;2.40;;;;;;;17.03;100.00;98836.17;109498;1251;74659;-72
2023/05/17 06:02:25;;;;;;;3.70;2.40;;;;;;;17.08;100.00;98839.96;109381;1252;61051;-68
2023/05/17 06:04:52;;;;;;;5.90;2.20;;;;;;;17.12;100.00;98838.08;109484;1252;59927;-68
2023/05/17 06:07:19;;;;;;;4.20;2.70;;;;;;;17.14;100.00;98846.73;109523;1252;75275;-69
2023/05/17 06:09:46;;;;;;;5.70;2.60;;;;;;;17.17;100.00;98844.35;109454;1252;69648;-69
2023/05/17 06:12:12;;;;;;;4.90;2.10;;;;;;;17.18;100.00;98841.58;109461;1253;71738;-71
2023/05/17 06:14:39;;;;;;;3.50;2.10;;;;;;;17.19;100.00;98850.96;109451;1252;60157;-75
2023/05/17 06:17:06;;;;;;;4.20;2.30;;;;;;;17.19;100.00;98854.30;109522;1252;61583;-72
2023/05/17 06:19:33;;;;;;;6.60;2.50;;;;;;;17.20;100.00;98855.58;109527;1252;75663;-74
2023/05/17 06:22:00;;;;;;;3.80;2.20;;;;;;;17.21;100.00;98854.77;109449;1252;70116;-76
2023/05/17 06:24:27;;;;;;;3.40;2.50;;;;;;;17.21;100.00;98854.23;109427;1252;72726;-73
2023/05/17 06:26:53;;;;;;;6.40;2.60;;;;;;;17.22;100.00;98853.73;109375;1253;61849;-72
2023/05/17 06:29:20;;;;;;;5.30;2.10;;;;;;;17.24;100.00;98858.83;109409;1252;61390;-72
2023/05/17 06:31:47;;;;;;;2.10;1.70;;;;;;;17.24;100.00;98852.54;109480;1252;76144;-68
2023/05/17 06:34:14;;;;;;;5.80;2.20;;;;;;;17.25;100.00;98856.13;109526;1252;68069;-70
2023/05/17 06:36:41;;;;;;;4.60;2.50;;;;;;;17.28;100.00;98866.55;109528;1252;75258;-70
2023/05/17 06:39:08;;;;;;;4.40;2.60;;;;;;;17.31;100.00;98857.63;109531;1251;61357;-69
2023/05/17 06:41:35;;;;;;;3.30;2.20;;;;;;;17.34;100.00;98861.80;109454;1252;61331;-70
2023/05/17 06:44:04;;;;;;;2.90;2.20;;;;;;;17.37;100.00;98866.96;109289;1253;75472;-69
2023/05/17 06:46:30;;;;;;;4.70;2.50;;;;;;;17.39;100.00;98876.34;109488;1252;67497;-70
2023/05/17 06:48:57;;;;;;;2.90;2.20;;;;;;;17.41;100.00;98871.65;109523;1251;72865;-69
2023/05/17 06:51:24;;;;;;;2.30;2.10;;;;;;;17.44;100.00;98878.20;109467;1252;60876;-68
2023/05/17 06:53:52;;;;;;;2.90;2.10;;;;;;;17.48;100.00;98879.64;109372;1252;61391;-69
2023/05/17 06:56:19;;;;;;;3.60;2.20;;;;;;;17.51;100.00;98894.25;109416;1252;76258;-71
2023/05/17 06:58:45;;;;;;;3.50;2.20;;;;;;;17.55;100.00;98886.27;109392;1252;67449;-69
2023/05/17 07:01:12;;;;;;;3.40;2.10;;;;;;;17.59;100.00;98886.36;109422;1251;72727;-66
2023/05/17 07:03:39;;;;;;;2.50;1.90;;;;;;;17.64;100.00;98882.66;109437;1252;59314;-69
2023/05/17 07:06:06;;;;;;;5.10;2.30;;;;;;;17.68;100.00;98888.27;109435;1251;62824;-70
2023/05/17 07:08:33;;;;;;;2.20;2.00;;;;;;;17.70;100.00;98889.07;109561;1252;77099;-68
2023/05/17 07:11:00;;;;;;;2.40;1.80;;;;;;;17.71;100.00;98886.69;109611;1252;70028;-68
2023/05/17 07:13:26;;;;;;;3.70;1.90;;;;;;;17.73;100.00;98891.30;109551;1252;73277;-69
2023/05/17 07:15:53;;;;;;;4.80;2.20;;;;;;;17.74;100.00;98895.16;109529;1253;61359;-68
2023/05/17 07:18:20;;;;;;;3.40;2.50;;;;;;;17.75;100.00;98892.65;109498;1253;58915;-67
2023/05/17 07:20:47;;;;;;;6.80;2.80;;;;;;;17.76;100.00;98893.15;109550;1252;75915;-68
2023/05/17 07:23:14;;;;;;;3.90;2.40;;;;;;;17.75;100.00;98889.69;109551;1252;69226;-70
2023/05/17 07:25:41;;;;;;;3.60;1.90;;;;;;;17.74;100.00;98888.10;109520;1253;73945;-69
2023/05/17 07:28:08;;;;;;;2.30;2.00;;;;;;;17.72;100.00;98886.11;109594;1251;60379;-68
2023/05/17 07:30:35;;;;;;;2.20;2.00;;;;;;;17.70;100.00;98885.80;109576;1252;61057;-69
2023/05/17 07:33:02;;;;;;;2.70;2.20;;;;;;;17.67;100.00;98888.95;109553;1252;75241;-69
2023/05/17 07:35:29;;;;;;;6.10;2.20;;;;;;;17.65;100.00;98888.56;109621;1251;69153;-70
2023/05/17 07:37:56;;;;;;;4.80;2.40;;;;;;;17.63;100.00;98892.45;109521;1252;73509;-68
2023/05/17 07:40:23;;;;;;;3.40;2.00;;;;;;;17.61;100.00;98901.16;109477;1252;60758;-69
2023/05/17 07:42:50;;;;;;;7.90;2.30;;;;;;;17.60;100.00;98899.10;109546;1251;60868;-68
2023/05/17 07:45:17;;;;;;;4.00;1.90;;;;;;;17.61;100.00;98899.21;109559;1252;75998;-69
2023/05/17 07:47:44;;;;;;;5.10;2.10;;;;;;;17.60;100.00;98899.30;109548;1251;68252;-70
2023/05/17 07:50:11;;;;;;;2.90;2.40;;;;;;;17.59;100.00;98902.02;109578;1252;72764;-68
2023/05/17 07:52:38;;;;;;;3.20;2.20;;;;;;;17.58;100.00;98900.48;109511;1252;62701;-67
2023/05/17 07:55:06;;;;;;;3.70;2.80;;;;;;;17.58;100.00;98906.45;109555;1252;60776;-69
2023/05/17 07:57:32;;;;;;;3.40;2.50;;;;;;;17.58;100.00;98909.64;109569;1252;76790;-68
2023/05/17 07:59:59;;;;;;;4.60;2.60;;;;;;;17.59;100.00;98906.33;109593;1252;66417;-69
2023/05/17 08:02:26;;;;;;;3.00;2.00;;;;;;;17.60;100.00;98913.66;109536;1251;74149;-67
2023/05/17 08:04:53;;;;;;;7.00;2.10;;;;;;;17.62;100.00;98913.19;109554;1252;59577;-67
2023/05/17 08:07:20;;;;;;;3.50;2.40;;;;;;;17.66;100.00;98913.66;109591;1252;61161;-68
2023/05/17 08:09:47;;;;;;;3.00;2.20;;;;;;;17.69;100.00;98912.16;109560;1253;75488;-68
2023/05/17 08:12:13;;;;;;;2.70;2.00;;;;;;;17.72;100.00;98916.09;109518;1252;68903;-69
2023/05/17 08:14:40;;;;;;;1.80;1.70;;;;;;;17.75;100.00;98912.23;109575;1252;72695;-70
2023/05/17 08:17:07;;;;;;;2.70;2.00;;;;;;;17.77;100.00;98915.36;109584;1252;61680;-70
2023/05/17 08:19:34;;;;;;;6.40;2.20;;;;;;;17.79;100.00;98914.66;109510;1252;62199;-69
2023/05/17 08:22:02;;;;;;;2.70;1.90;;;;;;;17.82;100.00;98916.48;109564;1252;76127;-68
2023/05/17 08:24:29;;;;;;;3.30;2.30;;;;;;;17.83;100.00;98918.04;109613;1252;70462;-70
2023/05/17 08:26:56;;;;;;;3.80;2.20;;;;;;;17.83;100.00;98922.13;109551;1252;73416;-69
2023/05/17 08:29:23;;;;;;;3.70;2.60;;;;;;;17.85;100.00;98924.96;109563;1252;60470;-69
2023/05/17 08:31:51;;;;;;;3.00;2.20;;;;;;;17.84;100.00;98921.05;109597;1251;62455;-68
2023/05/17 08:34:18;;;;;;;2.90;2.60;;;;;;;17.84;100.00;98924.48;109584;1251;76016;-68
2023/05/17 08:36:45;;;;;;;5.70;2.40;;;;;;;17.84;100.00;98924.89;109515;1252;68181;-70
2023/05/17 08:39:11;;;;;;;4.50;2.80;;;;;;;17.85;100.00;98929.39;109547;1252;71640;-69
2023/05/17 08:41:38;;;;;;;6.80;2.00;;;;;;;17.83;100.00;98930.21;109507;1252;62383;-68
2023/05/17 08:44:05;;;;;;;4.40;2.20;;;;;;;17.78;100.00;98930.45;109578;1253;60458;-69
2023/05/17 08:46:32;;;;;;;3.20;2.10;;;;;;;17.77;100.00;98936.73;109483;1254;76893;-69
2023/05/17 08:49:00;;;;;;;6.10;1.90;;;;;;;17.77;100.00;98941.39;109615;1251;70245;-69
2023/05/17 08:51:27;;;;;;;3.40;1.80;;;;;;;17.77;100.00;98939.20;109460;1252;74482;-70
2023/05/17 08:53:55;;;;;;;3.70;2.20;;;;;;;17.77;100.00;98943.84;109484;1252;61820;-67
2023/05/17 08:56:22;;;;;;;2.30;1.90;;;;;;;17.79;100.00;98940.05;109416;1253;62267;-70
2023/05/17 08:58:51;;;;;;;2.90;1.90;;;;;;;17.81;100.00;98939.84;109502;1252;75067;-69
2023/05/17 09:01:23;;;;;;;4.50;2.10;;;;;;;17.85;100.00;98940.32;109587;1251;67321;-70
2023/05/17 09:03:53;;;;;;;3.60;1.80;;;;;;;17.89;100.00;98948.76;109473;1251;75087;-69
2023/05/17 09:06:21;;;;;;;5.30;2.20;;;;;;;17.92;100.00;98952.47;109435;1252;59447;-70
2023/05/17 09:08:51;;;;;;;3.50;1.90;;;;;;;17.95;100.00;98948.26;109600;1252;60753;-68
2023/05/17 09:11:29;;;;;;;2.90;1.90;;;;;;;17.97;100.00;98951.91;109571;1253;76745;-68
2023/05/17 09:14:00;;;;;;;2.20;1.90;;;;;;;18.00;100.00;98953.02;109585;1251;66746;-69
2023/05/17 09:16:28;;;;;;;4.40;2.00;;;;;;;18.04;100.00;98953.33;109603;1253;71336;-70
2023/05/17 09:18:55;;;;;;;2.60;2.20;;;;;;;18.07;100.00;98955.68;109536;1252;59625;-68
2023/05/17 09:21:23;;;;;;;3.90;2.20;;;;;;;18.10;100.00;98954.52;109620;1251;62332;-69
2023/05/17 09:23:50;;;;;;;4.90;1.90;;;;;;;18.13;100.00;98956.00;109591;1253;74783;-68
2023/05/17 09:26:41;;;;;;;5.50;2.70;;;;;;;18.17;100.00;98952.70;109593;1251;68576;-68
2023/05/17 09:29:13;;;;;;;4.30;2.20;;;;;;;18.18;100.00;98955.95;109575;1251;71821;-68
2023/05/17 09:31:41;;;;;;;3.20;2.40;;;;;;;18.19;100.00;98957.44;109514;1252;61364;-70
2023/05/17 09:34:08;;;;;;;8.10;2.20;;;;;;;18.20;100.00;98951.54;109630;1251;61968;-68
2023/05/17 09:36:36;;;;;;;6.30;2.00;;;;;;;18.23;100.00;98953.65;109545;1252;74134;-70
2023/05/17 09:39:04;;;;;;;3.20;2.60;;;;;;;18.27;100.00;98954.20;109444;1252;67725;-68
2023/05/17 09:41:32;;;;;;;5.50;2.40;;;;;;;18.31;100.00;98956.25;109599;1252;74617;-70
2023/05/17 09:44:00;;;;;;;5.60;2.00;;;;;;;18.36;100.00;98955.75;109520;1253;61829;-69
2023/05/17 09:46:40;;;;;;;4.50;2.30;;;;;;;18.41;100.00;98958.39;109592;1252;61476;-68
2023/05/17 09:49:08;;;;;;;5.40;2.00;;;;;;;18.46;100.00;98954.39;109551;1253;77073;-70
2023/05/17 09:51:37;;;;;;;3.80;2.20;;;;;;;18.50;100.00;98956.77;109585;1252;69438;-69
2023/05/17 09:54:09;;;;;;;3.80;1.90;;;;;;;18.54;100.00;98952.70;109555;1253;73610;-74
2023/05/17 09:56:36;;;;;;;4.90;2.10;;;;;;;18.57;100.00;98952.30;109499;1252;60652;-69
2023/05/17 09:59:03;;;;;;;5.10;2.70;;;;;;;18.63;100.00;98950.54;109451;1252;60977;-73
2023/05/17 10:01:30;;;;;;;5.10;2.30;;;;;;;18.71;100.00;98954.17;109382;1252;77288;-75
2023/05/17 10:03:59;;;;;;;4.80;1.90;;;;;;;18.78;100.00;98954.23;109524;1251;67374;-75
2023/05/17 10:06:28;;;;;;;3.20;1.70;;;;;;;18.87;100.00;98954.08;109499;1253;74450;-77
2023/05/17 10:08:58;;;;;;;2.80;2.00;;;;;;;18.99;100.00;98955.52;109520;1252;62194;-74
2023/05/17 10:11:34;;;;;;;4.70;1.60;;;;;;;19.10;100.00;98959.95;109280;1258;59515;-73
2023/05/17 10:14:11;;;;;;;3.20;2.10;;;;;;;19.17;98.35;98958.02;109262;1253;76156;-75
2023/05/17 10:16:38;;;;;;;2.60;1.60;;;;;;;19.29;92.15;98964.61;109527;1252;70365;-71
2023/05/17 10:19:05;;;;;;;3.50;1.60;;;;;;;19.40;87.26;98959.68;109457;1252;71261;-73
2023/05/17 10:21:32;;;;;;;4.40;1.80;;;;;;;19.50;85.33;98962.00;109419;1252;61377;-75
2023/05/17 10:23:59;;;;;;;2.20;2.00;;;;;;;19.59;81.90;98962.22;109469;1252;61583;-74
2023/05/17 10:26:27;;;;;;;3.50;1.50;;;;;;;19.65;80.92;98966.66;109142;1259;74304;-73
2023/05/17 10:28:59;;;;;;;2.60;1.40;;;;;;;19.72;80.14;98970.79;109376;1253;69954;-76
2023/05/17 10:31:30;;;;;;;6.40;1.70;;;;;;;19.76;77.84;98967.79;109314;1253;73762;-76
2023/05/17 10:33:57;;;;;;;3.40;1.60;;;;;;;19.78;75.98;98971.55;109416;1253;61442;-74
2023/05/17 10:36:23;;;;;;;2.80;1.40;;;;;;;19.79;75.90;98966.71;109285;1252;62491;-75
2023/05/17 10:38:50;;;;;;;5.10;1.50;;;;;;;19.81;74.80;98970.04;109213;1252;75730;-73
2023/05/17 10:41:18;;;;;;;3.20;1.20;;;;;;;19.85;75.54;98964.87;109531;1252;67931;-69
2023/05/17 10:43:45;;;;;;;1.80;1.20;;;;;;;19.89;76.68;98969.20;109566;1253;73084;-76
2023/05/17 10:46:16;;;;;;;1.60;1.50;;;;;;;19.93;76.69;98966.21;109529;1253;62724;-71
2023/05/17 10:48:43;;;;;;;4.50;1.40;;;;;;;19.97;77.27;98962.88;109508;1253;61720;-72
2023/05/17 10:51:10;;;;;;;3.20;1.50;;;;;;;20.00;75.30;98963.09;109314;1251;73784;-71
2023/05/17 10:54:03;;;;;;;3.50;1.40;;;;;;;20.02;70.65;98965.34;109480;1251;67936;-68
2023/05/17 10:56:30;;;;;;;4.40;1.30;;;;;;;20.04;69.05;98968.14;109541;1252;74683;-72
2023/05/17 10:59:17;;;;;;;2.10;1.00;;;;;;;20.07;67.37;98964.50;109501;1252;60516;-70
2023/05/17 11:02:08;;;;;;;2.00;1.50;;;;;;;20.11;68.77;98963.78;109510;1252;61345;-72
2023/05/17 11:04:36;;;;;;;;;;;;;;;20.16;66.46;98971.05;109572;1253;76663;-72
2023/05/17 11:07:25;;;;;;;;;;;;;;;20.21;65.81;98967.13;109583;1252;70150;-72
2023/05/17 11:09:53;;;;;;;;;;;;;;;20.24;64.71;98970.02;109493;1253;74430;-73
2023/05/17 11:12:30;;;;;;;;;;;;;;;20.26;64.76;98963.16;109516;1252;62336;-68
2023/05/17 11:14:59;;;;;;;;;;;;;;;20.27;66.06;98959.93;109521;1252;60685;-67
2023/05/17 11:17:27;;;;;;;;;;;;;;;20.28;68.59;98958.31;109544;1252;75237;-67
2023/05/17 11:19:55;;;;;;;;;;;;;;;20.28;69.77;98959.61;109622;1253;69684;-71
2023/05/17 11:22:22;;;;;;;;;;;;;;;20.26;70.85;98958.72;109590;1253;74150;-69
2023/05/17 11:24:50;;;;;;;;;;;;;;;20.22;71.19;98949.94;109583;1253;62291;-70